createdAt,value
2022-11-20T00:02:06.914Z,80.97
2022-11-20T00:04:35.359Z,93.07
2022-11-20T00:07:03.834Z,78.63
2022-11-20T00:09:32.177Z,82.37
2022-11-20T00:12:00.515Z,63.93
2022-11-20T00:14:28.854Z,60.07
2022-11-20T00:16:57.337Z,60.43
2022-11-20T00:19:27.176Z,59.13
2022-11-20T00:21:56.594Z,55.30
2022-11-20T00:24:24.921Z,71.47
2022-11-20T00:26:53.264Z,70.90
2022-11-20T00:29:21.841Z,93.13
2022-11-20T00:31:50.403Z,86.93
2022-11-20T00:34:18.863Z,81.30
2022-11-20T00:36:48.764Z,72.87
2022-11-20T00:39:17.180Z,66.83
2022-11-20T00:41:45.584Z,77.63
2022-11-20T00:44:13.956Z,82.13
2022-11-20T00:46:42.342Z,84.80
2022-11-20T00:49:10.712Z,78.00
2022-11-20T00:51:39.061Z,80.77
2022-11-20T00:54:08.929Z,75.70
2022-11-20T00:56:37.276Z,59.27
2022-11-20T00:59:05.706Z,66.67
2022-11-20T01:01:35.320Z,60.53
2022-11-20T01:04:03.787Z,62.17
2022-11-20T01:06:34.323Z,60.80
2022-11-20T01:09:05.447Z,58.00
2022-11-20T01:11:37.146Z,55.00
2022-11-20T01:14:07.903Z,66.00
2022-11-20T01:16:38.970Z,58.47
2022-11-20T01:19:08.716Z,73.63
2022-11-20T01:21:39.095Z,71.40
2022-11-20T01:24:09.833Z,71.73
2022-11-20T01:26:41.541Z,61.43
2022-11-20T01:29:15.413Z,60.80
2022-11-20T01:31:44.721Z,52.50
2022-11-20T01:34:15.286Z,55.37
2022-11-20T01:36:44.458Z,54.70
2022-11-20T01:39:16.225Z,48.63
2022-11-20T01:42:09.608Z,48.20
2022-11-20T01:44:54.842Z,44.27
2022-11-20T01:47:29.590Z,52.57
2022-11-20T01:50:02.206Z,53.07
2022-11-20T01:52:35.029Z,49.80
2022-11-20T01:55:08.876Z,46.93
2022-11-20T01:57:40.301Z,45.20
2022-11-20T02:00:11.171Z,48.93
2022-11-20T02:02:41.437Z,48.23
2022-11-20T02:05:19.859Z,46.77
2022-11-20T02:07:49.096Z,48.40
2022-11-20T02:10:17.805Z,53.33
2022-11-20T02:13:05.027Z,55.13
2022-11-20T02:15:35.639Z,52.03
2022-11-20T02:18:04.285Z,48.13
2022-11-20T02:20:32.831Z,47.33
2022-11-20T02:23:07.656Z,50.27
2022-11-20T02:25:38.605Z,50.07
2022-11-20T02:28:08.155Z,49.10
2022-11-20T02:30:36.548Z,48.30
2022-11-20T02:33:05.029Z,45.40
2022-11-20T02:35:48.434Z,45.47
2022-11-20T02:38:17.270Z,49.00
2022-11-20T02:40:51.401Z,46.00
2022-11-20T02:43:22.707Z,44.47
2022-11-20T02:45:51.092Z,44.87
2022-11-20T02:48:19.644Z,47.83
2022-11-20T02:50:47.966Z,56.73
2022-11-20T02:53:16.352Z,50.13
2022-11-20T02:55:44.794Z,49.13
2022-11-20T02:58:14.669Z,49.93
2022-11-20T03:00:43.467Z,45.47
2022-11-20T03:03:11.802Z,45.60
2022-11-20T03:05:40.214Z,46.90
2022-11-20T03:08:08.598Z,44.20
2022-11-20T03:10:36.975Z,49.60
2022-11-20T03:13:05.317Z,48.23
2022-11-20T03:15:35.422Z,48.87
2022-11-20T03:18:03.833Z,50.57
2022-11-20T03:20:32.269Z,47.30
2022-11-20T03:23:00.561Z,51.63
2022-11-20T03:25:28.995Z,50.67
2022-11-20T03:27:57.618Z,50.30
2022-11-20T03:30:30.416Z,50.03
2022-11-20T03:33:01.396Z,50.23
2022-11-20T03:35:29.783Z,52.23
2022-11-20T03:37:58.118Z,50.03
2022-11-20T03:40:26.549Z,52.33
2022-11-20T03:42:54.990Z,52.23
2022-11-20T03:45:23.370Z,55.50
2022-11-20T03:47:51.885Z,52.83
2022-11-20T03:50:21.777Z,48.40
2022-11-20T03:52:50.113Z,50.37
2022-11-20T03:55:18.507Z,45.97
2022-11-20T03:57:46.836Z,51.30
2022-11-20T04:00:16.515Z,55.33
2022-11-20T04:02:44.825Z,47.37
2022-11-20T04:05:13.203Z,54.40
2022-11-20T04:07:43.201Z,56.40
2022-11-20T04:10:11.707Z,51.57
2022-11-20T04:12:40.089Z,45.47
2022-11-20T04:15:09.156Z,49.40
2022-11-20T04:17:37.522Z,46.40
2022-11-20T04:20:06.872Z,46.30
2022-11-20T04:22:35.289Z,49.10
2022-11-20T04:25:05.524Z,53.90
2022-11-20T04:27:33.992Z,51.47
2022-11-20T04:30:02.408Z,44.50
2022-11-20T04:32:30.930Z,45.67
2022-11-20T04:34:59.352Z,50.97
2022-11-20T04:37:27.833Z,54.13
2022-11-20T04:39:56.217Z,47.63
2022-11-20T04:42:31.699Z,44.70
2022-11-20T04:45:00.182Z,55.13
2022-11-20T04:47:28.536Z,48.90
2022-11-20T04:49:57.002Z,44.87
2022-11-20T04:52:25.542Z,41.60
2022-11-20T04:54:55.094Z,45.93
2022-11-20T04:57:23.554Z,49.93
2022-11-20T04:59:53.319Z,49.10
2022-11-20T05:02:21.832Z,49.83
2022-11-20T05:04:50.481Z,47.83
2022-11-20T05:07:19.104Z,52.00
2022-11-20T05:09:47.508Z,50.33
2022-11-20T05:12:15.859Z,46.00
2022-11-20T05:14:44.282Z,48.23
2022-11-20T05:17:14.419Z,51.20
2022-11-20T05:19:42.792Z,51.10
2022-11-20T05:22:11.109Z,52.57
2022-11-20T05:24:39.541Z,48.10
2022-11-20T05:27:07.962Z,52.93
2022-11-20T05:29:36.429Z,57.40
2022-11-20T05:32:04.824Z,60.87
2022-11-20T05:34:34.618Z,63.87
2022-11-20T05:37:03.074Z,53.40
2022-11-20T05:39:31.600Z,55.73
2022-11-20T05:42:13.797Z,53.47
2022-11-20T05:44:42.268Z,50.23
2022-11-20T05:47:10.601Z,51.20
2022-11-20T05:49:40.435Z,51.77
2022-11-20T05:52:08.749Z,51.60
2022-11-20T05:54:37.198Z,56.13
2022-11-20T05:57:05.801Z,55.50
2022-11-20T05:59:34.176Z,61.47
2022-11-20T06:02:02.533Z,62.80
2022-11-20T06:04:31.242Z,71.80
2022-11-20T06:07:01.027Z,70.20
2022-11-20T06:09:29.432Z,63.70
2022-11-20T06:11:57.839Z,66.83
2022-11-20T06:14:26.521Z,68.33
2022-11-20T06:16:54.906Z,85.57
2022-11-20T06:19:23.626Z,114.17
2022-11-20T06:21:52.512Z,111.37
2022-11-20T06:24:22.240Z,80.23
2022-11-20T06:26:50.669Z,81.73
2022-11-20T06:29:19.310Z,79.43
2022-11-20T06:31:47.808Z,96.87
2022-11-20T06:34:16.187Z,86.10
2022-11-20T06:36:44.516Z,74.07
2022-11-20T06:39:13.335Z,76.63
2022-11-20T06:41:43.205Z,59.93
2022-11-20T06:44:11.671Z,60.40
2022-11-20T06:46:40.016Z,60.03
2022-11-20T06:49:08.543Z,68.27
2022-11-20T06:51:36.908Z,72.47
2022-11-20T06:54:05.259Z,74.20
2022-11-20T06:56:33.727Z,61.33
2022-11-20T06:59:06.691Z,59.33
2022-11-20T07:01:36.172Z,60.67
2022-11-20T07:04:05.178Z,60.77
2022-11-20T07:06:33.844Z,66.53
2022-11-20T07:09:02.758Z,91.73
2022-11-20T07:11:31.118Z,81.33
2022-11-20T07:13:59.834Z,62.10
2022-11-20T07:16:30.062Z,61.87
2022-11-20T07:18:58.421Z,58.57
2022-11-20T07:21:26.810Z,56.33
2022-11-20T07:23:55.169Z,49.83
2022-11-20T07:26:23.531Z,49.07
2022-11-20T07:28:51.947Z,58.50
2022-11-20T07:31:20.297Z,60.03
2022-11-20T07:33:50.437Z,57.97
2022-11-20T07:36:18.927Z,56.87
2022-11-20T07:38:47.307Z,61.80
2022-11-20T07:41:15.668Z,58.83
2022-11-20T07:43:44.052Z,50.80
2022-11-20T07:46:12.372Z,57.40
2022-11-20T07:48:40.862Z,53.90
2022-11-20T07:51:10.711Z,53.50
2022-11-20T07:53:39.149Z,50.33
2022-11-20T07:56:08.346Z,50.93
2022-11-20T07:58:36.827Z,49.17
2022-11-20T08:01:06.699Z,50.63
2022-11-20T08:03:35.439Z,51.43
2022-11-20T08:06:04.139Z,43.03
2022-11-20T08:08:34.942Z,46.77
2022-11-20T08:11:21.940Z,42.83
2022-11-20T08:14:07.609Z,48.53
2022-11-20T08:16:35.968Z,46.47
2022-11-20T08:19:04.356Z,45.30
2022-11-20T08:21:38.015Z,38.80
2022-11-20T08:24:09.303Z,39.53
2022-11-20T08:26:38.356Z,43.50
2022-11-20T08:29:07.581Z,35.07
2022-11-20T08:31:36.327Z,35.27
2022-11-20T08:34:08.974Z,35.57
2022-11-20T08:36:38.538Z,32.17
2022-11-20T08:39:08.353Z,28.97
2022-11-20T08:41:38.155Z,55.73
2022-11-20T08:44:08.121Z,32.47
2022-11-20T08:46:39.312Z,33.10
2022-11-20T08:49:08.891Z,32.40
2022-11-20T08:51:37.791Z,33.97
2022-11-20T08:54:09.392Z,31.53
2022-11-20T08:56:38.179Z,29.60
2022-11-20T09:01:55.344Z,32.03
2022-11-20T09:04:23.732Z,32.10
2022-11-20T09:06:53.204Z,35.17
2022-11-20T09:09:23.370Z,28.07
2022-11-20T09:11:52.294Z,26.53
2022-11-20T09:14:20.670Z,29.33
2022-11-20T09:16:49.095Z,25.33
2022-11-20T09:22:05.929Z,30.20
2022-11-20T09:24:35.996Z,25.77
2022-11-20T09:27:06.428Z,27.47
2022-11-20T09:29:34.897Z,27.70
2022-11-20T09:32:03.277Z,27.73
2022-11-20T09:34:31.657Z,30.57
2022-11-20T09:37:02.978Z,29.47
2022-11-20T09:39:40.076Z,28.57
2022-11-20T09:42:30.544Z,27.03
2022-11-20T09:45:15.253Z,26.63
2022-11-20T09:47:56.992Z,26.20
2022-11-20T09:50:34.365Z,29.87
2022-11-20T09:53:14.511Z,30.43
2022-11-20T09:55:44.816Z,31.17
2022-11-20T09:58:18.796Z,30.53
2022-11-20T10:00:48.171Z,30.60
2022-11-20T10:03:22.055Z,35.43
2022-11-20T10:05:53.704Z,33.93
2022-11-20T10:08:25.585Z,33.20
2022-11-20T10:11:02.944Z,32.17
2022-11-20T10:13:43.240Z,24.87
2022-11-20T10:16:21.109Z,26.83
2022-11-20T10:19:03.720Z,33.17
2022-11-20T10:21:41.799Z,30.03
2022-11-20T10:24:32.418Z,27.10
2022-11-20T10:27:16.553Z,31.73
2022-11-20T10:29:48.798Z,27.03
2022-11-20T10:32:20.588Z,26.43
2022-11-20T10:34:54.318Z,24.43
2022-11-20T10:37:26.823Z,27.23
2022-11-20T10:40:02.145Z,26.80
2022-11-20T10:42:38.677Z,27.70
2022-11-20T10:45:20.920Z,27.13
2022-11-20T10:47:49.281Z,28.57
2022-11-20T10:50:22.977Z,28.30
2022-11-20T10:52:58.949Z,26.03
2022-11-20T10:55:35.398Z,27.03
2022-11-20T10:58:15.854Z,26.17
2022-11-20T11:00:44.660Z,26.37
2022-11-20T11:03:24.953Z,27.23
2022-11-20T11:06:01.141Z,24.53
2022-11-20T11:08:34.336Z,25.13
2022-11-20T11:11:22.934Z,26.03
2022-11-20T11:13:53.284Z,27.10
2022-11-20T11:16:26.564Z,24.53
2022-11-20T11:19:06.172Z,24.90
2022-11-20T11:21:34.620Z,29.70
2022-11-20T11:24:34.744Z,24.30
2022-11-20T11:26:59.575Z,27.77
2022-11-20T11:29:30.718Z,30.37
2022-11-20T11:32:07.781Z,25.37
2022-11-20T11:34:36.776Z,22.50
2022-11-20T11:37:05.677Z,18.87
2022-11-20T11:39:35.702Z,20.33
2022-11-20T11:42:04.542Z,19.00
2022-11-20T11:44:53.673Z,18.17
2022-11-20T11:47:27.073Z,18.60
2022-11-20T11:50:05.063Z,20.20
2022-11-20T11:52:38.896Z,22.43
2022-11-20T11:55:13.543Z,22.50
2022-11-20T11:57:49.638Z,18.13
2022-11-20T12:00:22.512Z,22.30
2022-11-20T12:03:05.366Z,25.33
2022-11-20T12:05:41.021Z,25.27
2022-11-20T12:08:19.384Z,19.50
2022-11-20T12:10:54.231Z,19.13
2022-11-20T12:13:43.267Z,26.67
2022-11-20T12:16:16.046Z,17.20
2022-11-20T12:18:45.268Z,17.97
2022-11-20T12:21:23.116Z,21.57
2022-11-20T12:24:18.385Z,24.60
2022-11-20T12:27:04.860Z,22.33
2022-11-20T12:29:45.692Z,19.00
2022-11-20T12:32:40.715Z,18.60
2022-11-20T12:35:26.701Z,19.10
2022-11-20T12:38:10.508Z,16.77
2022-11-20T12:40:47.451Z,17.67
2022-11-20T12:43:38.962Z,17.87
2022-11-20T12:46:24.342Z,15.90
2022-11-20T12:49:26.289Z,16.80
2022-11-20T12:52:10.155Z,14.07
2022-11-20T12:55:15.785Z,12.90
2022-11-20T12:57:52.432Z,15.40
2022-11-20T13:00:22.446Z,12.63
2022-11-20T13:03:23.609Z,16.63
2022-11-20T13:06:02.611Z,16.17
2022-11-20T13:08:35.446Z,17.10
2022-11-20T13:11:12.131Z,15.40
2022-11-20T13:13:52.088Z,12.97
2022-11-20T13:16:28.875Z,13.77
2022-11-20T13:18:57.518Z,14.10
2022-11-20T13:21:39.850Z,13.30
2022-11-20T13:24:08.827Z,13.40
2022-11-20T13:26:37.295Z,13.77
2022-11-20T13:29:12.020Z,15.13
2022-11-20T13:31:46.149Z,16.17
2022-11-20T13:34:25.654Z,14.27
2022-11-20T13:36:57.739Z,14.03
2022-11-20T13:39:30.591Z,31.33
2022-11-20T13:42:00.342Z,29.87
2022-11-20T13:44:36.649Z,17.40
2022-11-20T13:47:05.035Z,14.07
2022-11-20T13:49:41.022Z,13.77
2022-11-20T13:52:41.478Z,12.30
2022-11-20T13:55:19.191Z,15.67
2022-11-20T13:58:18.178Z,31.80
2022-11-20T14:00:51.455Z,143.47
2022-11-20T14:03:44.180Z,27.37
2022-11-20T14:06:17.106Z,21.30
2022-11-20T14:08:51.860Z,18.20
2022-11-20T14:11:21.979Z,18.10
2022-11-20T14:13:59.266Z,18.07
2022-11-20T14:16:29.601Z,96.47
2022-11-20T14:18:59.664Z,79.73
2022-11-20T14:21:30.666Z,37.33
2022-11-20T14:24:14.030Z,34.07
2022-11-20T14:26:45.801Z,31.13
2022-11-20T14:29:15.770Z,22.70
2022-11-20T14:31:47.869Z,21.03
2022-11-20T14:34:22.905Z,19.10
2022-11-20T14:36:54.790Z,23.43
2022-11-20T14:39:27.853Z,19.27
2022-11-20T14:41:56.765Z,16.33
2022-11-20T14:44:29.753Z,16.53
2022-11-20T14:46:59.335Z,17.50
2022-11-20T14:49:28.878Z,21.03
2022-11-20T14:52:05.043Z,16.50
2022-11-20T14:54:34.955Z,19.37
2022-11-20T14:57:05.523Z,17.37
2022-11-20T14:59:35.643Z,19.00
2022-11-20T15:02:07.948Z,20.00
2022-11-20T15:04:47.610Z,23.70
2022-11-20T15:07:27.260Z,28.73
2022-11-20T15:10:08.703Z,26.27
2022-11-20T15:12:39.798Z,18.87
2022-11-20T15:15:13.402Z,20.00
2022-11-20T15:17:43.322Z,19.20
2022-11-20T15:20:16.222Z,17.97
2022-11-20T15:22:44.587Z,20.93
2022-11-20T15:25:19.130Z,17.30
2022-11-20T15:27:50.721Z,17.87
2022-11-20T15:30:21.326Z,18.80
2022-11-20T15:32:50.589Z,19.07
2022-11-20T15:35:19.143Z,18.40
2022-11-20T15:37:47.508Z,18.87
2022-11-20T15:40:17.619Z,21.07
2022-11-20T15:43:06.744Z,21.60
2022-11-20T15:45:41.070Z,25.93
2022-11-20T15:48:14.212Z,28.00
2022-11-20T15:51:00.986Z,25.40
2022-11-20T15:53:29.542Z,21.33
2022-11-20T15:55:59.375Z,23.17
2022-11-20T15:58:28.190Z,24.57
2022-11-20T16:00:56.853Z,23.63
2022-11-20T16:03:25.524Z,20.77
2022-11-20T16:05:53.910Z,30.50
2022-11-20T16:08:22.262Z,36.00
2022-11-20T16:10:50.755Z,33.13
2022-11-20T16:13:38.090Z,32.07
2022-11-20T16:16:10.361Z,33.33
2022-11-20T16:18:38.771Z,27.07
2022-11-20T16:21:07.135Z,25.77
2022-11-20T16:23:35.564Z,28.50
2022-11-20T16:26:12.526Z,30.47
2022-11-20T16:28:42.557Z,28.93
2022-11-20T16:31:12.872Z,35.80
2022-11-20T16:33:41.514Z,39.70
2022-11-20T16:36:11.866Z,38.47
2022-11-20T16:38:40.287Z,43.07
2022-11-20T16:41:14.618Z,49.23
2022-11-20T16:43:52.183Z,52.33
2022-11-20T16:46:21.969Z,53.67
2022-11-20T16:48:55.717Z,55.87
2022-11-20T16:51:25.046Z,47.70
2022-11-20T16:53:56.074Z,56.07
2022-11-20T16:56:25.728Z,54.27
2022-11-20T16:58:57.468Z,36.93
2022-11-20T17:01:27.722Z,44.77
2022-11-20T17:03:58.057Z,59.73
2022-11-20T17:06:28.369Z,62.17
2022-11-20T17:08:57.504Z,52.63
2022-11-20T17:11:26.957Z,55.03
2022-11-20T17:14:00.800Z,45.70
2022-11-20T17:16:29.525Z,43.97
2022-11-20T17:19:02.995Z,42.63
2022-11-20T17:21:33.032Z,45.27
2022-11-20T17:24:03.615Z,49.73
2022-11-20T17:26:32.635Z,49.80
2022-11-20T17:29:04.892Z,44.60
2022-11-20T17:31:34.863Z,42.40
2022-11-20T17:34:04.270Z,43.67
2022-11-20T17:36:33.551Z,41.43
2022-11-20T17:39:02.180Z,45.77
2022-11-20T17:41:31.560Z,48.63
2022-11-20T17:44:02.355Z,45.43
2022-11-20T17:46:33.715Z,44.23
2022-11-20T17:49:02.878Z,43.60
2022-11-20T17:51:33.229Z,44.47
2022-11-20T17:54:03.445Z,44.73
2022-11-20T17:56:50.275Z,45.03
2022-11-20T17:59:20.935Z,45.67
2022-11-20T18:01:49.541Z,39.60
2022-11-20T18:04:18.107Z,39.83
2022-11-20T18:06:47.106Z,38.43
2022-11-20T18:09:16.162Z,38.80
2022-11-20T18:11:45.976Z,42.67
2022-11-20T18:14:32.999Z,39.53
2022-11-20T18:17:05.895Z,40.97
2022-11-20T18:19:41.154Z,35.87
2022-11-20T18:22:15.536Z,32.83
2022-11-20T18:24:45.756Z,41.50
2022-11-20T18:27:16.976Z,47.03
2022-11-20T18:29:48.721Z,69.07
2022-11-20T18:32:19.816Z,94.13
2022-11-20T18:34:49.122Z,54.30
2022-11-20T18:37:18.023Z,42.77
2022-11-20T18:39:47.471Z,45.60
2022-11-20T18:42:35.050Z,43.30
2022-11-20T18:45:04.676Z,42.17
2022-11-20T18:47:38.192Z,41.50
2022-11-20T18:50:09.155Z,44.63
2022-11-20T18:52:41.290Z,43.73
2022-11-20T18:55:11.276Z,42.77
2022-11-20T18:57:39.700Z,40.40
2022-11-20T19:00:10.158Z,44.60
2022-11-20T19:02:42.668Z,42.80
2022-11-20T19:05:12.293Z,47.03
2022-11-20T19:07:40.932Z,44.60
2022-11-20T19:10:09.757Z,45.23
2022-11-20T19:12:38.743Z,55.30
2022-11-20T19:15:08.603Z,44.90
2022-11-20T19:17:37.263Z,47.17
2022-11-20T19:20:08.955Z,48.73
2022-11-20T19:22:38.173Z,68.40
2022-11-20T19:25:07.513Z,58.07
2022-11-20T19:27:36.176Z,50.17
2022-11-20T19:30:06.203Z,62.37
2022-11-20T19:32:35.469Z,117.33
2022-11-20T19:35:04.135Z,111.03
2022-11-20T19:37:35.836Z,136.63
2022-11-20T19:40:05.618Z,207.50
2022-11-20T19:42:34.129Z,182.30
2022-11-20T19:45:24.704Z,96.07
2022-11-20T19:48:07.207Z,63.47
2022-11-20T19:50:36.217Z,183.77
2022-11-20T19:53:04.737Z,463.37
2022-11-20T19:55:33.150Z,358.67
2022-11-20T19:58:02.662Z,437.27
2022-11-20T20:00:33.089Z,357.43
2022-11-20T20:03:01.976Z,99.80
2022-11-20T20:05:30.376Z,51.17
2022-11-20T20:07:58.846Z,44.67
2022-11-20T20:10:27.215Z,52.83
2022-11-20T20:12:55.851Z,48.90
2022-11-20T20:15:24.228Z,56.57
2022-11-20T20:17:55.073Z,50.50
2022-11-20T20:20:24.196Z,70.80
2022-11-20T20:22:52.597Z,57.43
2022-11-20T20:25:21.113Z,52.60
2022-11-20T20:27:49.655Z,46.20
2022-11-20T20:30:18.217Z,228.20
2022-11-20T20:32:48.856Z,691.67
2022-11-20T20:35:20.710Z,834.97
2022-11-20T20:37:49.476Z,245.70
2022-11-20T20:40:19.257Z,223.10
2022-11-20T20:42:47.833Z,104.00
2022-11-20T20:45:16.290Z,58.63
2022-11-20T20:47:44.732Z,53.83
2022-11-20T20:50:14.175Z,60.93
2022-11-20T20:52:44.102Z,68.83
2022-11-20T20:55:12.919Z,77.13
2022-11-20T20:57:42.004Z,70.90
2022-11-20T21:00:11.488Z,107.97
2022-11-20T21:02:39.973Z,199.13
2022-11-20T21:05:08.944Z,154.20
2022-11-20T21:07:58.587Z,119.70
2022-11-20T21:10:28.608Z,112.90
2022-11-20T21:12:57.012Z,98.67
2022-11-20T21:15:25.707Z,69.90
2022-11-20T21:17:54.113Z,60.83
2022-11-20T21:20:39.588Z,64.43
2022-11-20T21:23:11.394Z,60.03
2022-11-20T21:25:41.632Z,69.20
2022-11-20T21:28:13.167Z,123.90
2022-11-20T21:30:45.559Z,173.47
2022-11-20T21:33:13.992Z,142.93
2022-11-20T21:35:42.738Z,128.40
2022-11-20T21:38:11.091Z,120.63
2022-11-20T21:40:40.973Z,116.43
2022-11-20T21:43:09.912Z,123.27
2022-11-20T21:45:38.349Z,87.00
2022-11-20T21:48:07.574Z,89.90
2022-11-20T21:50:36.507Z,91.27
2022-11-20T21:53:05.109Z,93.20
2022-11-20T21:55:33.540Z,86.17
2022-11-20T21:58:03.346Z,81.07
2022-11-20T22:00:31.855Z,75.63
2022-11-20T22:03:00.241Z,78.47
2022-11-20T22:05:28.701Z,89.87
2022-11-20T22:07:57.028Z,92.50
2022-11-20T22:10:25.362Z,83.03
2022-11-20T22:13:14.936Z,84.70
2022-11-20T22:15:59.700Z,79.73
2022-11-20T22:18:29.935Z,76.57
2022-11-20T22:20:58.345Z,61.50
2022-11-20T22:23:27.261Z,73.23
2022-11-20T22:25:56.249Z,70.73
2022-11-20T22:28:25.285Z,73.57
2022-11-20T22:30:59.820Z,75.97
2022-11-20T22:33:29.686Z,68.30
2022-11-20T22:36:06.142Z,78.67
2022-11-20T22:38:39.303Z,74.77
2022-11-20T22:41:10.329Z,71.70
2022-11-20T22:43:40.368Z,73.27
2022-11-20T22:46:12.838Z,70.30
2022-11-20T22:48:43.335Z,69.13
2022-11-20T22:51:14.417Z,122.20
2022-11-20T22:53:44.474Z,151.77
2022-11-20T22:56:15.649Z,71.37
2022-11-20T22:58:46.908Z,69.20
2022-11-20T23:01:22.325Z,70.17
2022-11-20T23:03:53.504Z,44.10
2022-11-20T23:06:22.907Z,609.07
2022-11-20T23:08:52.121Z,364.47
2022-11-20T23:11:22.484Z,241.13
2022-11-20T23:13:56.373Z,471.03
2022-11-20T23:16:28.052Z,127.97
2022-11-20T23:18:57.650Z,103.27
2022-11-20T23:21:30.730Z,75.27
2022-11-20T23:24:02.185Z,72.57
2022-11-20T23:26:35.542Z,74.33
2022-11-20T23:29:04.197Z,72.37
2022-11-20T23:31:36.253Z,83.53
2022-11-20T23:34:05.058Z,81.77
2022-11-20T23:36:34.357Z,82.30
2022-11-20T23:39:02.830Z,84.67
2022-11-20T23:41:32.169Z,258.03
2022-11-20T23:44:01.821Z,200.10
2022-11-20T23:46:30.312Z,158.27
2022-11-20T23:49:01.016Z,176.67
2022-11-20T23:51:30.818Z,90.40
2022-11-20T23:54:04.528Z,73.40
2022-11-20T23:56:34.141Z,69.63
2022-11-20T23:59:03.295Z,68.73
